sensor_id;sensor_type;location;lat;lon;timestamp;P1;durP1;ratioP1;P2;durP2;ratioP2
35795;SDS011;21916;52.428;13.302;2023-05-13T00:00:41;6.70;;;3.70;;
35795;SDS011;21916;52.428;13.302;2023-05-13T00:03:07;6.43;;;3.42;;
35795;SDS011;21916;52.428;13.302;2023-05-13T00:05:33;10.50;;;4.25;;
35795;SDS011;21916;52.428;13.302;2023-05-13T00:07:58;8.93;;;4.13;;
35795;SDS011;21916;52.428;13.302;2023-05-13T00:10:26;10.90;;;4.22;;
35795;SDS011;21916;52.428;13.302;2023-05-13T00:12:52;9.90;;;3.90;;
35795;SDS011;21916;52.428;13.302;2023-05-13T00:15:18;9.68;;;4.32;;
35795;SDS011;21916;52.428;13.302;2023-05-13T00:17:44;6.05;;;3.72;;
35795;SDS011;21916;52.428;13.302;2023-05-13T00:20:10;8.07;;;4.70;;
35795;SDS011;21916;52.428;13.302;2023-05-13T00:22:36;8.98;;;4.30;;
35795;SDS011;21916;52.428;13.302;2023-05-13T00:25:02;9.35;;;4.40;;
35795;SDS011;21916;52.428;13.302;2023-05-13T00:27:28;9.80;;;4.22;;
35795;SDS011;21916;52.428;13.302;2023-05-13T00:29:54;6.57;;;4.05;;
35795;SDS011;21916;52.428;13.302;2023-05-13T00:32:20;7.20;;;3.90;;
35795;SDS011;21916;52.428;13.302;2023-05-13T00:34:46;7.40;;;3.65;;
35795;SDS011;21916;52.428;13.302;2023-05-13T00:37:11;4.60;;;3.70;;
35795;SDS011;21916;52.428;13.302;2023-05-13T00:39:38;12.57;;;4.80;;
35795;SDS011;21916;52.428;13.302;2023-05-13T00:42:04;10.60;;;3.90;;
35795;SDS011;21916;52.428;13.302;2023-05-13T00:44:30;6.57;;;4.30;;
35795;SDS011;21916;52.428;13.302;2023-05-13T00:46:56;12.32;;;4.35;;
35795;SDS011;21916;52.428;13.302;2023-05-13T00:49:22;8.55;;;3.70;;
35795;SDS011;21916;52.428;13.302;2023-05-13T00:51:48;5.57;;;3.70;;
35795;SDS011;21916;52.428;13.302;2023-05-13T00:54:16;9.30;;;4.07;;
35795;SDS011;21916;52.428;13.302;2023-05-13T00:56:42;11.75;;;4.25;;
35795;SDS011;21916;52.428;13.302;2023-05-13T00:59:08;7.13;;;4.22;;
35795;SDS011;21916;52.428;13.302;2023-05-13T01:04:13;9.40;;;3.88;;
35795;SDS011;21916;52.428;13.302;2023-05-13T01:12:35;7.97;;;4.63;;
35795;SDS011;21916;52.428;13.302;2023-05-13T01:15:11;6.28;;;3.80;;
35795;SDS011;21916;52.428;13.302;2023-05-13T01:17:40;13.80;;;4.47;;
35795;SDS011;21916;52.428;13.302;2023-05-13T01:20:22;8.23;;;4.28;;
35795;SDS011;21916;52.428;13.302;2023-05-13T01:22:48;5.93;;;3.67;;
35795;SDS011;21916;52.428;13.302;2023-05-13T01:25:15;6.40;;;4.00;;
35795;SDS011;21916;52.428;13.302;2023-05-13T01:27:41;9.77;;;4.57;;
35795;SDS011;21916;52.428;13.302;2023-05-13T01:30:09;6.57;;;3.70;;
35795;SDS011;21916;52.428;13.302;2023-05-13T01:32:36;6.50;;;4.35;;
35795;SDS011;21916;52.428;13.302;2023-05-13T01:35:03;7.70;;;3.75;;
35795;SDS011;21916;52.428;13.302;2023-05-13T01:37:33;8.63;;;4.03;;
35795;SDS011;21916;52.428;13.302;2023-05-13T01:40:00;9.57;;;4.10;;
35795;SDS011;21916;52.428;13.302;2023-05-13T01:42:29;11.15;;;4.55;;
35795;SDS011;21916;52.428;13.302;2023-05-13T01:44:55;7.30;;;4.00;;
35795;SDS011;21916;52.428;13.302;2023-05-13T01:47:21;9.63;;;4.50;;
35795;SDS011;21916;52.428;13.302;2023-05-13T01:49:47;5.68;;;4.13;;
35795;SDS011;21916;52.428;13.302;2023-05-13T01:52:13;11.75;;;3.95;;
35795;SDS011;21916;52.428;13.302;2023-05-13T01:54:39;18.25;;;5.18;;
35795;SDS011;21916;52.428;13.302;2023-05-13T01:57:09;7.50;;;4.60;;
35795;SDS011;21916;52.428;13.302;2023-05-13T01:59:35;7.22;;;4.38;;
35795;SDS011;21916;52.428;13.302;2023-05-13T02:02:01;11.30;;;4.88;;
35795;SDS011;21916;52.428;13.302;2023-05-13T02:04:28;10.35;;;4.65;;
35795;SDS011;21916;52.428;13.302;2023-05-13T02:06:54;6.18;;;4.22;;
35795;SDS011;21916;52.428;13.302;2023-05-13T02:09:21;8.18;;;4.10;;
35795;SDS011;21916;52.428;13.302;2023-05-13T02:11:47;8.75;;;5.00;;
35795;SDS011;21916;52.428;13.302;2023-05-13T02:14:14;8.52;;;4.78;;
35795;SDS011;21916;52.428;13.302;2023-05-13T02:16:40;7.57;;;4.85;;
35795;SDS011;21916;52.428;13.302;2023-05-13T02:19:05;11.93;;;4.93;;
35795;SDS011;21916;52.428;13.302;2023-05-13T02:21:32;8.43;;;4.30;;
35795;SDS011;21916;52.428;13.302;2023-05-13T02:23:58;11.18;;;4.22;;
35795;SDS011;21916;52.428;13.302;2023-05-13T02:26:23;8.48;;;4.75;;
35795;SDS011;21916;52.428;13.302;2023-05-13T02:28:49;8.45;;;4.57;;
35795;SDS011;21916;52.428;13.302;2023-05-13T02:31:15;10.52;;;4.22;;
35795;SDS011;21916;52.428;13.302;2023-05-13T02:33:43;7.75;;;5.22;;
35795;SDS011;21916;52.428;13.302;2023-05-13T02:36:09;9.60;;;4.47;;
35795;SDS011;21916;52.428;13.302;2023-05-13T02:38:36;11.85;;;4.57;;
35795;SDS011;21916;52.428;13.302;2023-05-13T02:41:03;7.00;;;4.80;;
35795;SDS011;21916;52.428;13.302;2023-05-13T02:43:30;8.60;;;4.00;;
35795;SDS011;21916;52.428;13.302;2023-05-13T02:46:01;6.95;;;4.13;;
35795;SDS011;21916;52.428;13.302;2023-05-13T02:48:29;9.85;;;4.68;;
35795;SDS011;21916;52.428;13.302;2023-05-13T02:50:55;9.63;;;4.32;;
35795;SDS011;21916;52.428;13.302;2023-05-13T02:53:21;10.07;;;4.70;;
35795;SDS011;21916;52.428;13.302;2023-05-13T02:55:53;11.73;;;4.80;;
35795;SDS011;21916;52.428;13.302;2023-05-13T02:58:22;12.43;;;5.20;;
35795;SDS011;21916;52.428;13.302;2023-05-13T03:00:49;8.93;;;4.68;;
35795;SDS011;21916;52.428;13.302;2023-05-13T03:03:14;11.35;;;4.70;;
35795;SDS011;21916;52.428;13.302;2023-05-13T03:05:40;7.80;;;4.43;;
35795;SDS011;21916;52.428;13.302;2023-05-13T03:08:06;8.40;;;4.63;;
35795;SDS011;21916;52.428;13.302;2023-05-13T03:10:33;7.00;;;4.68;;
35795;SDS011;21916;52.428;13.302;2023-05-13T03:12:59;11.27;;;4.22;;
35795;SDS011;21916;52.428;13.302;2023-05-13T03:15:28;11.25;;;5.07;;
35795;SDS011;21916;52.428;13.302;2023-05-13T03:17:53;9.27;;;4.70;;
35795;SDS011;21916;52.428;13.302;2023-05-13T03:20:20;5.95;;;4.63;;
35795;SDS011;21916;52.428;13.302;2023-05-13T03:22:46;8.63;;;4.53;;
35795;SDS011;21916;52.428;13.302;2023-05-13T03:25:12;10.63;;;4.32;;
35795;SDS011;21916;52.428;13.302;2023-05-13T03:27:43;8.85;;;4.70;;
35795;SDS011;21916;52.428;13.302;2023-05-13T03:30:10;12.73;;;5.03;;
35795;SDS011;21916;52.428;13.302;2023-05-13T03:32:43;6.97;;;4.60;;
35795;SDS011;21916;52.428;13.302;2023-05-13T03:35:11;12.38;;;4.72;;
35795;SDS011;21916;52.428;13.302;2023-05-13T03:37:42;13.52;;;4.65;;
35795;SDS011;21916;52.428;13.302;2023-05-13T03:40:11;13.27;;;4.95;;
35795;SDS011;21916;52.428;13.302;2023-05-13T03:42:39;8.15;;;4.35;;
35795;SDS011;21916;52.428;13.302;2023-05-13T03:45:06;8.75;;;5.07;;
35795;SDS011;21916;52.428;13.302;2023-05-13T03:47:34;12.02;;;4.68;;
35795;SDS011;21916;52.428;13.302;2023-05-13T03:50:04;12.20;;;5.40;;
35795;SDS011;21916;52.428;13.302;2023-05-13T03:52:38;8.65;;;4.75;;
35795;SDS011;21916;52.428;13.302;2023-05-13T03:55:06;9.15;;;5.43;;
35795;SDS011;21916;52.428;13.302;2023-05-13T03:57:33;9.88;;;5.18;;
35795;SDS011;21916;52.428;13.302;2023-05-13T03:59:59;8.40;;;4.85;;
35795;SDS011;21916;52.428;13.302;2023-05-13T04:02:25;6.95;;;4.88;;
35795;SDS011;21916;52.428;13.302;2023-05-13T04:04:51;8.60;;;5.05;;
35795;SDS011;21916;52.428;13.302;2023-05-13T04:07:17;13.68;;;5.20;;
35795;SDS011;21916;52.428;13.302;2023-05-13T04:09:43;7.30;;;5.00;;
35795;SDS011;21916;52.428;13.302;2023-05-13T04:12:09;7.97;;;4.70;;
35795;SDS011;21916;52.428;13.302;2023-05-13T04:14:35;9.15;;;4.97;;
35795;SDS011;21916;52.428;13.302;2023-05-13T04:17:01;11.60;;;5.55;;
35795;SDS011;21916;52.428;13.302;2023-05-13T04:19:29;11.68;;;5.43;;
35795;SDS011;21916;52.428;13.302;2023-05-13T04:21:54;14.00;;;4.80;;
35795;SDS011;21916;52.428;13.302;2023-05-13T04:24:21;8.43;;;5.28;;
35795;SDS011;21916;52.428;13.302;2023-05-13T04:26:47;13.75;;;5.85;;
35795;SDS011;21916;52.428;13.302;2023-05-13T04:29:14;8.75;;;4.72;;
35795;SDS011;21916;52.428;13.302;2023-05-13T04:31:43;9.20;;;4.93;;
35795;SDS011;21916;52.428;13.302;2023-05-13T04:34:09;11.20;;;5.28;;
35795;SDS011;21916;52.428;13.302;2023-05-13T04:36:35;9.05;;;4.85;;
35795;SDS011;21916;52.428;13.302;2023-05-13T04:39:01;11.18;;;5.40;;
35795;SDS011;21916;52.428;13.302;2023-05-13T04:41:27;7.82;;;5.30;;
35795;SDS011;21916;52.428;13.302;2023-05-13T04:43:53;11.07;;;4.97;;
35795;SDS011;21916;52.428;13.302;2023-05-13T04:46:19;14.52;;;4.68;;
35795;SDS011;21916;52.428;13.302;2023-05-13T04:48:46;9.00;;;4.88;;
35795;SDS011;21916;52.428;13.302;2023-05-13T04:51:13;10.90;;;5.60;;
35795;SDS011;21916;52.428;13.302;2023-05-13T04:53:40;11.60;;;4.82;;
35795;SDS011;21916;52.428;13.302;2023-05-13T04:56:07;9.85;;;5.32;;
35795;SDS011;21916;52.428;13.302;2023-05-13T04:58:33;8.50;;;5.57;;
35795;SDS011;21916;52.428;13.302;2023-05-13T05:01:00;6.45;;;5.18;;
35795;SDS011;21916;52.428;13.302;2023-05-13T05:03:26;11.05;;;5.28;;
35795;SDS011;21916;52.428;13.302;2023-05-13T05:05:56;10.30;;;5.20;;
35795;SDS011;21916;52.428;13.302;2023-05-13T05:08:22;7.43;;;4.93;;
35795;SDS011;21916;52.428;13.302;2023-05-13T05:10:53;8.45;;;4.78;;
35795;SDS011;21916;52.428;13.302;2023-05-13T05:13:19;10.00;;;4.25;;
35795;SDS011;21916;52.428;13.302;2023-05-13T05:15:45;7.93;;;4.55;;
35795;SDS011;21916;52.428;13.302;2023-05-13T05:18:12;10.15;;;4.90;;
35795;SDS011;21916;52.428;13.302;2023-05-13T05:20:40;8.63;;;4.82;;
35795;SDS011;21916;52.428;13.302;2023-05-13T05:23:12;7.18;;;4.32;;
35795;SDS011;21916;52.428;13.302;2023-05-13T05:25:38;10.15;;;4.53;;
35795;SDS011;21916;52.428;13.302;2023-05-13T05:28:04;7.32;;;4.13;;
35795;SDS011;21916;52.428;13.302;2023-05-13T05:30:31;12.52;;;4.13;;
35795;SDS011;21916;52.428;13.302;2023-05-13T05:33:05;7.65;;;4.05;;
35795;SDS011;21916;52.428;13.302;2023-05-13T05:35:33;6.50;;;4.28;;
35795;SDS011;21916;52.428;13.302;2023-05-13T05:38:05;9.10;;;4.80;;
35795;SDS011;21916;52.428;13.302;2023-05-13T05:40:34;7.45;;;4.72;;
35795;SDS011;21916;52.428;13.302;2023-05-13T05:43:01;13.13;;;5.03;;
35795;SDS011;21916;52.428;13.302;2023-05-13T05:45:27;8.57;;;4.13;;
35795;SDS011;21916;52.428;13.302;2023-05-13T05:47:53;7.40;;;4.00;;
35795;SDS011;21916;52.428;13.302;2023-05-13T05:50:20;6.25;;;3.80;;
35795;SDS011;21916;52.428;13.302;2023-05-13T05:52:46;12.40;;;4.63;;
35795;SDS011;21916;52.428;13.302;2023-05-13T05:55:13;9.23;;;4.00;;
35795;SDS011;21916;52.428;13.302;2023-05-13T05:57:39;10.07;;;4.07;;
35795;SDS011;21916;52.428;13.302;2023-05-13T06:00:05;10.88;;;4.38;;
35795;SDS011;21916;52.428;13.302;2023-05-13T06:02:40;7.55;;;4.05;;
35795;SDS011;21916;52.428;13.302;2023-05-13T06:05:07;6.00;;;3.63;;
35795;SDS011;21916;52.428;13.302;2023-05-13T06:07:35;10.85;;;4.13;;
35795;SDS011;21916;52.428;13.302;2023-05-13T06:10:01;7.72;;;3.97;;
35795;SDS011;21916;52.428;13.302;2023-05-13T06:12:28;8.48;;;4.18;;
35795;SDS011;21916;52.428;13.302;2023-05-13T06:14:54;8.25;;;4.00;;
35795;SDS011;21916;52.428;13.302;2023-05-13T06:17:20;10.85;;;4.05;;
35795;SDS011;21916;52.428;13.302;2023-05-13T06:19:46;5.90;;;4.10;;
35795;SDS011;21916;52.428;13.302;2023-05-13T06:22:13;5.72;;;4.05;;
35795;SDS011;21916;52.428;13.302;2023-05-13T06:24:41;8.20;;;3.55;;
35795;SDS011;21916;52.428;13.302;2023-05-13T06:27:12;9.32;;;3.47;;
35795;SDS011;21916;52.428;13.302;2023-05-13T06:29:38;9.23;;;3.88;;
35795;SDS011;21916;52.428;13.302;2023-05-13T06:32:04;7.43;;;3.60;;
35795;SDS011;21916;52.428;13.302;2023-05-13T06:34:30;8.32;;;3.53;;
35795;SDS011;21916;52.428;13.302;2023-05-13T06:36:57;6.32;;;3.22;;
35795;SDS011;21916;52.428;13.302;2023-05-13T06:39:23;6.25;;;3.67;;
35795;SDS011;21916;52.428;13.302;2023-05-13T06:41:50;7.22;;;3.67;;
35795;SDS011;21916;52.428;13.302;2023-05-13T06:44:16;8.70;;;3.67;;
35795;SDS011;21916;52.428;13.302;2023-05-13T06:46:44;6.97;;;3.33;;
35795;SDS011;21916;52.428;13.302;2023-05-13T06:49:13;6.45;;;3.28;;
35795;SDS011;21916;52.428;13.302;2023-05-13T06:51:39;7.20;;;3.83;;
35795;SDS011;21916;52.428;13.302;2023-05-13T06:54:05;7.03;;;3.08;;
35795;SDS011;21916;52.428;13.302;2023-05-13T06:56:31;9.90;;;3.15;;
35795;SDS011;21916;52.428;13.302;2023-05-13T06:58:59;6.50;;;3.67;;
35795;SDS011;21916;52.428;13.302;2023-05-13T07:01:24;7.82;;;3.03;;
35795;SDS011;21916;52.428;13.302;2023-05-13T07:03:50;7.70;;;2.85;;
35795;SDS011;21916;52.428;13.302;2023-05-13T07:06:16;5.53;;;3.30;;
35795;SDS011;21916;52.428;13.302;2023-05-13T07:08:42;7.90;;;2.60;;
35795;SDS011;21916;52.428;13.302;2023-05-13T07:11:08;6.13;;;3.03;;
35795;SDS011;21916;52.428;13.302;2023-05-13T07:13:34;8.45;;;2.60;;
35795;SDS011;21916;52.428;13.302;2023-05-13T07:16:00;5.45;;;2.85;;
35795;SDS011;21916;52.428;13.302;2023-05-13T07:18:28;5.80;;;3.10;;
35795;SDS011;21916;52.428;13.302;2023-05-13T07:20:54;5.40;;;2.67;;
35795;SDS011;21916;52.428;13.302;2023-05-13T07:23:24;5.35;;;2.70;;
35795;SDS011;21916;52.428;13.302;2023-05-13T07:25:50;7.15;;;2.70;;
35795;SDS011;21916;52.428;13.302;2023-05-13T07:28:19;9.02;;;2.47;;
35795;SDS011;21916;52.428;13.302;2023-05-13T07:30:45;5.05;;;2.47;;
35795;SDS011;21916;52.428;13.302;2023-05-13T07:33:11;7.22;;;2.75;;
35795;SDS011;21916;52.428;13.302;2023-05-13T07:35:37;5.05;;;2.58;;
35795;SDS011;21916;52.428;13.302;2023-05-13T07:38:03;6.15;;;2.95;;
35795;SDS011;21916;52.428;13.302;2023-05-13T07:40:32;5.55;;;2.65;;
35795;SDS011;21916;52.428;13.302;2023-05-13T07:42:58;9.30;;;2.58;;
35795;SDS011;21916;52.428;13.302;2023-05-13T07:45:25;4.13;;;2.60;;
35795;SDS011;21916;52.428;13.302;2023-05-13T07:47:51;6.97;;;2.60;;
35795;SDS011;21916;52.428;13.302;2023-05-13T07:50:17;4.07;;;2.72;;
35795;SDS011;21916;52.428;13.302;2023-05-13T07:52:43;5.05;;;2.70;;
35795;SDS011;21916;52.428;13.302;2023-05-13T07:55:13;4.55;;;2.53;;
35795;SDS011;21916;52.428;13.302;2023-05-13T07:57:40;6.45;;;2.20;;
35795;SDS011;21916;52.428;13.302;2023-05-13T08:00:06;5.72;;;2.90;;
35795;SDS011;21916;52.428;13.302;2023-05-13T08:02:38;5.75;;;2.65;;
35795;SDS011;21916;52.428;13.302;2023-05-13T08:05:05;6.28;;;2.83;;
35795;SDS011;21916;52.428;13.302;2023-05-13T08:07:31;5.57;;;2.63;;
35795;SDS011;21916;52.428;13.302;2023-05-13T08:09:57;8.05;;;3.63;;
35795;SDS011;21916;52.428;13.302;2023-05-13T08:12:23;3.75;;;2.30;;
35795;SDS011;21916;52.428;13.302;2023-05-13T08:14:49;3.40;;;2.45;;
35795;SDS011;21916;52.428;13.302;2023-05-13T08:17:15;3.28;;;2.55;;
35795;SDS011;21916;52.428;13.302;2023-05-13T08:19:44;5.85;;;2.90;;
35795;SDS011;21916;52.428;13.302;2023-05-13T08:22:10;5.10;;;2.80;;
35795;SDS011;21916;52.428;13.302;2023-05-13T08:24:36;5.03;;;2.50;;
35795;SDS011;21916;52.428;13.302;2023-05-13T08:27:05;6.82;;;2.97;;
35795;SDS011;21916;52.428;13.302;2023-05-13T08:29:30;8.27;;;2.72;;
35795;SDS011;21916;52.428;13.302;2023-05-13T08:31:56;5.50;;;2.53;;
35795;SDS011;21916;52.428;13.302;2023-05-13T08:34:22;4.82;;;3.05;;
35795;SDS011;21916;52.428;13.302;2023-05-13T08:36:48;5.05;;;3.67;;
35795;SDS011;21916;52.428;13.302;2023-05-13T08:39:14;4.40;;;2.80;;
35795;SDS011;21916;52.428;13.302;2023-05-13T08:41:40;3.83;;;2.33;;
35795;SDS011;21916;52.428;13.302;2023-05-13T08:44:06;6.60;;;3.13;;
35795;SDS011;21916;52.428;13.302;2023-05-13T08:46:33;8.60;;;2.88;;
35795;SDS011;21916;52.428;13.302;2023-05-13T08:49:02;4.07;;;2.97;;
35795;SDS011;21916;52.428;13.302;2023-05-13T08:51:29;5.88;;;3.08;;
35795;SDS011;21916;52.428;13.302;2023-05-13T08:53:56;9.25;;;3.03;;
35795;SDS011;21916;52.428;13.302;2023-05-13T08:56:23;9.43;;;2.97;;
35795;SDS011;21916;52.428;13.302;2023-05-13T08:58:53;7.97;;;4.03;;
35795;SDS011;21916;52.428;13.302;2023-05-13T09:01:19;3.50;;;2.83;;
35795;SDS011;21916;52.428;13.302;2023-05-13T09:04:05;9.35;;;3.08;;
35795;SDS011;21916;52.428;13.302;2023-05-13T09:06:33;5.78;;;2.92;;
35795;SDS011;21916;52.428;13.302;2023-05-13T09:08:59;5.93;;;2.80;;
35795;SDS011;21916;52.428;13.302;2023-05-13T09:11:27;6.40;;;3.10;;
35795;SDS011;21916;52.428;13.302;2023-05-13T09:13:57;4.55;;;2.97;;
35795;SDS011;21916;52.428;13.302;2023-05-13T09:16:26;4.15;;;3.00;;
35795;SDS011;21916;52.428;13.302;2023-05-13T09:18:59;5.20;;;2.30;;
35795;SDS011;21916;52.428;13.302;2023-05-13T09:21:30;5.00;;;2.92;;
35795;SDS011;21916;52.428;13.302;2023-05-13T09:26:42;4.22;;;2.90;;
35795;SDS011;21916;52.428;13.302;2023-05-13T09:31:47;6.63;;;2.88;;
35795;SDS011;21916;52.428;13.302;2023-05-13T09:34:23;4.03;;;2.80;;
35795;SDS011;21916;52.428;13.302;2023-05-13T09:37:02;9.45;;;2.08;;
35795;SDS011;21916;52.428;13.302;2023-05-13T09:39:30;5.93;;;2.63;;
35795;SDS011;21916;52.428;13.302;2023-05-13T09:41:59;5.25;;;3.28;;
35795;SDS011;21916;52.428;13.302;2023-05-13T09:44:26;6.15;;;2.55;;
35795;SDS011;21916;52.428;13.302;2023-05-13T09:46:52;5.18;;;2.47;;
35795;SDS011;21916;52.428;13.302;2023-05-13T09:49:22;4.13;;;2.33;;
35795;SDS011;21916;52.428;13.302;2023-05-13T09:51:51;5.40;;;2.83;;
35795;SDS011;21916;52.428;13.302;2023-05-13T09:54:17;6.72;;;2.35;;
35795;SDS011;21916;52.428;13.302;2023-05-13T09:56:43;4.68;;;2.55;;
35795;SDS011;21916;52.428;13.302;2023-05-13T09:59:09;4.20;;;2.25;;
35795;SDS011;21916;52.428;13.302;2023-05-13T10:01:35;3.95;;;2.60;;
35795;SDS011;21916;52.428;13.302;2023-05-13T10:04:01;6.70;;;2.97;;
35795;SDS011;21916;52.428;13.302;2023-05-13T10:06:30;7.78;;;2.78;;
35795;SDS011;21916;52.428;13.302;2023-05-13T10:08:57;3.53;;;2.35;;
35795;SDS011;21916;52.428;13.302;2023-05-13T10:11:24;6.13;;;3.50;;
35795;SDS011;21916;52.428;13.302;2023-05-13T10:13:59;3.47;;;2.20;;
35795;SDS011;21916;52.428;13.302;2023-05-13T10:16:30;6.03;;;2.72;;
35795;SDS011;21916;52.428;13.302;2023-05-13T10:18:57;2.47;;;1.98;;
35795;SDS011;21916;52.428;13.302;2023-05-13T10:21:26;4.20;;;1.80;;
35795;SDS011;21916;52.428;13.302;2023-05-13T10:23:52;3.05;;;2.22;;
35795;SDS011;21916;52.428;13.302;2023-05-13T10:26:21;3.25;;;1.98;;
35795;SDS011;21916;52.428;13.302;2023-05-13T10:28:48;4.13;;;2.25;;
35795;SDS011;21916;52.428;13.302;2023-05-13T10:31:15;4.88;;;2.08;;
35795;SDS011;21916;52.428;13.302;2023-05-13T10:33:41;8.27;;;2.22;;
35795;SDS011;21916;52.428;13.302;2023-05-13T10:44:01;5.25;;;2.40;;
35795;SDS011;21916;52.428;13.302;2023-05-13T10:46:28;3.75;;;2.10;;
35795;SDS011;21916;52.428;13.302;2023-05-13T10:48:55;4.55;;;2.20;;
35795;SDS011;21916;52.428;13.302;2023-05-13T10:51:23;5.78;;;1.98;;
35795;SDS011;21916;52.428;13.302;2023-05-13T10:53:50;3.95;;;2.92;;
35795;SDS011;21916;52.428;13.302;2023-05-13T10:56:18;5.75;;;2.30;;
35795;SDS011;21916;52.428;13.302;2023-05-13T10:59:02;3.47;;;2.03;;
35795;SDS011;21916;52.428;13.302;2023-05-13T11:01:32;5.18;;;2.00;;
35795;SDS011;21916;52.428;13.302;2023-05-13T11:04:00;8.02;;;1.80;;
35795;SDS011;21916;52.428;13.302;2023-05-13T11:06:28;7.07;;;2.33;;
35795;SDS011;21916;52.428;13.302;2023-05-13T11:09:07;4.25;;;2.08;;
35795;SDS011;21916;52.428;13.302;2023-05-13T11:11:37;6.82;;;2.10;;
35795;SDS011;21916;52.428;13.302;2023-05-13T11:14:16;4.65;;;2.10;;
35795;SDS011;21916;52.428;13.302;2023-05-13T11:16:51;5.28;;;1.92;;
35795;SDS011;21916;52.428;13.302;2023-05-13T11:19:35;3.65;;;1.80;;
35795;SDS011;21916;52.428;13.302;2023-05-13T11:24:36;5.63;;;1.60;;
35795;SDS011;21916;52.428;13.302;2023-05-13T11:27:13;3.50;;;1.65;;
35795;SDS011;21916;52.428;13.302;2023-05-13T11:29:47;5.85;;;1.95;;
35795;SDS011;21916;52.428;13.302;2023-05-13T11:32:15;4.45;;;1.70;;
35795;SDS011;21916;52.428;13.302;2023-05-13T11:35:20;5.63;;;1.80;;
35795;SDS011;21916;52.428;13.302;2023-05-13T11:37:48;4.72;;;1.60;;
35795;SDS011;21916;52.428;13.302;2023-05-13T11:40:21;6.03;;;1.88;;
35795;SDS011;21916;52.428;13.302;2023-05-13T11:42:47;3.15;;;1.50;;
35795;SDS011;21916;52.428;13.302;2023-05-13T11:45:15;2.22;;;1.73;;
35795;SDS011;21916;52.428;13.302;2023-05-13T11:47:41;8.10;;;1.90;;
35795;SDS011;21916;52.428;13.302;2023-05-13T11:50:17;2.50;;;1.42;;
35795;SDS011;21916;52.428;13.302;2023-05-13T11:52:51;4.47;;;2.00;;
35795;SDS011;21916;52.428;13.302;2023-05-13T11:55:31;4.75;;;1.33;;
35795;SDS011;21916;52.428;13.302;2023-05-13T11:58:01;2.92;;;1.70;;
35795;SDS011;21916;52.428;13.302;2023-05-13T12:00:28;4.88;;;1.95;;
35795;SDS011;21916;52.428;13.302;2023-05-13T12:02:58;8.43;;;1.60;;
35795;SDS011;21916;52.428;13.302;2023-05-13T12:05:25;4.45;;;1.58;;
35795;SDS011;21916;52.428;13.302;2023-05-13T12:07:55;3.42;;;2.47;;
35795;SDS011;21916;52.428;13.302;2023-05-13T12:10:22;3.42;;;1.52;;
35795;SDS011;21916;52.428;13.302;2023-05-13T12:12:48;7.05;;;1.55;;
35795;SDS011;21916;52.428;13.302;2023-05-13T12:15:16;5.38;;;1.50;;
35795;SDS011;21916;52.428;13.302;2023-05-13T12:17:43;5.93;;;1.70;;
35795;SDS011;21916;52.428;13.302;2023-05-13T12:20:14;11.23;;;2.00;;
35795;SDS011;21916;52.428;13.302;2023-05-13T12:28:16;5.75;;;2.03;;
35795;SDS011;21916;52.428;13.302;2023-05-13T12:30:52;7.10;;;2.38;;
35795;SDS011;21916;52.428;13.302;2023-05-13T12:35:51;4.10;;;1.90;;
35795;SDS011;21916;52.428;13.302;2023-05-13T12:38:20;6.32;;;1.80;;
35795;SDS011;21916;52.428;13.302;2023-05-13T12:40:50;4.22;;;1.50;;
35795;SDS011;21916;52.428;13.302;2023-05-13T12:43:17;7.90;;;1.75;;
35795;SDS011;21916;52.428;13.302;2023-05-13T12:45:44;5.22;;;1.90;;
35795;SDS011;21916;52.428;13.302;2023-05-13T12:48:11;2.22;;;1.58;;
35795;SDS011;21916;52.428;13.302;2023-05-13T12:50:38;5.78;;;1.80;;
35795;SDS011;21916;52.428;13.302;2023-05-13T12:53:04;3.35;;;2.00;;
35795;SDS011;21916;52.428;13.302;2023-05-13T12:55:30;7.07;;;2.15;;
35795;SDS011;21916;52.428;13.302;2023-05-13T12:58:01;6.00;;;1.75;;
35795;SDS011;21916;52.428;13.302;2023-05-13T13:00:28;7.00;;;1.90;;
35795;SDS011;21916;52.428;13.302;2023-05-13T13:02:55;6.45;;;1.73;;
35795;SDS011;21916;52.428;13.302;2023-05-13T13:05:21;3.95;;;2.03;;
35795;SDS011;21916;52.428;13.302;2023-05-13T13:07:48;5.10;;;2.10;;
35795;SDS011;21916;52.428;13.302;2023-05-13T13:10:15;5.40;;;2.08;;
35795;SDS011;21916;52.428;13.302;2023-05-13T13:12:41;7.30;;;1.85;;
35795;SDS011;21916;52.428;13.302;2023-05-13T13:15:08;5.35;;;1.60;;
35795;SDS011;21916;52.428;13.302;2023-05-13T13:17:34;5.47;;;1.80;;
35795;SDS011;21916;52.428;13.302;2023-05-13T13:20:00;6.45;;;1.92;;
35795;SDS011;21916;52.428;13.302;2023-05-13T13:22:29;6.38;;;2.00;;
35795;SDS011;21916;52.428;13.302;2023-05-13T13:24:55;7.00;;;2.10;;
35795;SDS011;21916;52.428;13.302;2023-05-13T13:27:20;4.20;;;2.55;;
35795;SDS011;21916;52.428;13.302;2023-05-13T13:29:46;3.72;;;1.95;;
35795;SDS011;21916;52.428;13.302;2023-05-13T13:32:12;4.90;;;1.88;;
35795;SDS011;21916;52.428;13.302;2023-05-13T13:34:38;7.53;;;2.08;;
35795;SDS011;21916;52.428;13.302;2023-05-13T13:37:04;6.50;;;2.38;;
35795;SDS011;21916;52.428;13.302;2023-05-13T13:39:30;4.72;;;1.98;;
35795;SDS011;21916;52.428;13.302;2023-05-13T13:41:56;5.00;;;2.00;;
35795;SDS011;21916;52.428;13.302;2023-05-13T13:44:21;5.50;;;2.22;;
35795;SDS011;21916;52.428;13.302;2023-05-13T13:46:47;4.03;;;2.30;;
35795;SDS011;21916;52.428;13.302;2023-05-13T13:49:14;4.57;;;1.80;;
35795;SDS011;21916;52.428;13.302;2023-05-13T13:51:39;5.40;;;2.30;;
35795;SDS011;21916;52.428;13.302;2023-05-13T13:54:06;8.68;;;2.47;;
35795;SDS011;21916;52.428;13.302;2023-05-13T13:56:37;5.07;;;2.38;;
35795;SDS011;21916;52.428;13.302;2023-05-13T13:59:04;3.35;;;1.83;;
35795;SDS011;21916;52.428;13.302;2023-05-13T14:01:29;6.68;;;2.30;;
35795;SDS011;21916;52.428;13.302;2023-05-13T14:04:14;4.18;;;2.28;;
35795;SDS011;21916;52.428;13.302;2023-05-13T14:06:44;4.45;;;1.92;;
35795;SDS011;21916;52.428;13.302;2023-05-13T14:09:11;5.10;;;2.08;;
35795;SDS011;21916;52.428;13.302;2023-05-13T14:11:37;5.05;;;1.73;;
35795;SDS011;21916;52.428;13.302;2023-05-13T14:14:03;5.70;;;1.65;;
35795;SDS011;21916;52.428;13.302;2023-05-13T14:16:29;3.60;;;2.00;;
35795;SDS011;21916;52.428;13.302;2023-05-13T14:18:55;2.35;;;1.70;;
35795;SDS011;21916;52.428;13.302;2023-05-13T14:21:21;2.58;;;1.98;;
35795;SDS011;21916;52.428;13.302;2023-05-13T14:23:46;5.13;;;2.08;;
35795;SDS011;21916;52.428;13.302;2023-05-13T14:26:12;2.78;;;1.90;;
35795;SDS011;21916;52.428;13.302;2023-05-13T14:28:40;4.50;;;1.77;;
35795;SDS011;21916;52.428;13.302;2023-05-13T14:31:09;5.70;;;2.00;;
35795;SDS011;21916;52.428;13.302;2023-05-13T14:33:37;3.75;;;1.98;;
35795;SDS011;21916;52.428;13.302;2023-05-13T14:36:04;6.05;;;2.08;;
35795;SDS011;21916;52.428;13.302;2023-05-13T14:38:30;5.18;;;2.35;;
35795;SDS011;21916;52.428;13.302;2023-05-13T14:40:56;4.47;;;1.80;;
35795;SDS011;21916;52.428;13.302;2023-05-13T14:43:22;2.92;;;2.20;;
35795;SDS011;21916;52.428;13.302;2023-05-13T14:45:49;3.53;;;1.60;;
35795;SDS011;21916;52.428;13.302;2023-05-13T14:48:15;5.22;;;1.63;;
35795;SDS011;21916;52.428;13.302;2023-05-13T14:50:41;2.88;;;2.38;;
35795;SDS011;21916;52.428;13.302;2023-05-13T14:53:09;2.55;;;1.80;;
35795;SDS011;21916;52.428;13.302;2023-05-13T14:55:40;2.90;;;1.70;;
35795;SDS011;21916;52.428;13.302;2023-05-13T14:58:06;3.33;;;2.33;;
35795;SDS011;21916;52.428;13.302;2023-05-13T15:00:33;2.83;;;2.05;;
35795;SDS011;21916;52.428;13.302;2023-05-13T15:03:01;3.60;;;2.03;;
35795;SDS011;21916;52.428;13.302;2023-05-13T15:05:27;2.53;;;2.00;;
35795;SDS011;21916;52.428;13.302;2023-05-13T15:07:53;5.03;;;2.67;;